Skip Navigation LinksHome page > Weather > Current weather Skip Navigation Links

Current Weather

Chicago O'Hare Intl, Chicago

For information only: do not use for flight planning or navigation.
Latest weather
Observation time Thursday, October 8, 2015 10:51 AM CDT
Local time Thursday, October 8, 2015 11:18 AM CDT
Flight conditions Visual Meteorological Conditions
Wind direction South-Southwest (200°)
Wind speed 14 mph
Visibility 10 mi.
Sky condition
Ceiling 25,000 ft. broken clouds
Cloud layer few clouds 9,000 ft.
Cloud layer broken clouds 25,000 ft.
Temperature 69°F
Dewpoint 56°F
Altimeter 29.99 in.Hg
Derived measurements
Relative humidity 63%
Density altitude 1457 ft.
Sea-level pressure 29.98 in.Hg
Automated weather observing station with precipitation discriminator.
METAR KORD 081551Z 20012KT 10SM FEW090 BKN250 21/13 A2999 RMK AO2 SLP153 T02060133


Location code

InnerDrive.Weather 4.0.5722.1 Release CLR 4.0.30319.34014
Copyright ©2015 Inner Drive Technology. All rights reserved. Portions Copyright ©1986-2015 David Braverman.

Find weather

Site navigation

Skip Navigation Links

Place info

Page info

PayPal - The safer, easier way to pay online!

Return home.

Copyright ©2015 Inner Drive Technology. Purveyors of fine, hand-crafted computer software. Page printed 2015-10-08T16:18:32 UTC.